createdAt,value
2022-09-24T00:01:32.320Z,100852.09
2022-09-24T00:04:01.005Z,100853.50
2022-09-24T00:06:29.290Z,100850.78
2022-09-24T00:08:58.095Z,100854.59
2022-09-24T00:11:26.951Z,100844.53
2022-09-24T00:13:56.730Z,100840.13
2022-09-24T00:16:25.712Z,100834.66
2022-09-24T00:18:54.477Z,100829.22
2022-09-24T00:21:23.957Z,100831.09
2022-09-24T00:23:52.928Z,100843.91
2022-09-24T00:26:39.049Z,100840.34
2022-09-24T00:29:08.391Z,100815.06
2022-09-24T00:31:36.359Z,100841.41
2022-09-24T00:34:04.638Z,100843.31
2022-09-24T00:36:32.578Z,100842.25
2022-09-24T00:39:00.877Z,100844.97
2022-09-24T00:41:30.516Z,100848.75
2022-09-24T00:43:58.496Z,100844.41
2022-09-24T00:46:29.351Z,100852.31
2022-09-24T00:48:59.704Z,100852.59
2022-09-24T00:51:28.232Z,100848.75
2022-09-24T00:53:57.544Z,100839.88
2022-09-24T00:56:25.492Z,100854.22
2022-09-24T00:58:56.165Z,100851.50
2022-09-24T01:01:24.861Z,100851.50
2022-09-24T01:03:55.535Z,100843.31
2022-09-24T01:06:23.442Z,100848.75
2022-09-24T01:08:51.618Z,100844.41
2022-09-24T01:11:36.463Z,100835.13
2022-09-24T01:14:14.711Z,100829.66
2022-09-24T01:16:46.772Z,100824.47
2022-09-24T01:19:29.792Z,100816.28
2022-09-24T01:21:58.105Z,100813.53
2022-09-24T01:24:47.367Z,100821.72
2022-09-24T01:27:17.009Z,100818.16
2022-09-24T01:29:53.300Z,100811.03
2022-09-24T01:32:26.759Z,100814.59
2022-09-24T01:34:59.714Z,100802.72
2022-09-24T01:37:28.456Z,100812.94
2022-09-24T01:39:56.608Z,100811.03
2022-09-24T01:42:25.052Z,100809.38
2022-09-24T01:44:54.367Z,100812.94
2022-09-24T01:47:29.942Z,100803.91
2022-09-24T01:50:01.506Z,100809.38
2022-09-24T01:52:32.209Z,100803.91
2022-09-24T01:55:00.247Z,100800.34
2022-09-24T01:57:30.792Z,100803.06
2022-09-24T02:00:01.352Z,100776.25
2022-09-24T02:02:31.682Z,100770.91
2022-09-24T02:05:02.778Z,100798.69
2022-09-24T02:07:34.575Z,100800.34
2022-09-24T02:10:02.460Z,100794.88
2022-09-24T02:12:32.816Z,100802.00
2022-09-24T02:15:03.309Z,100780.66
2022-09-24T02:17:33.570Z,100795.16
2022-09-24T02:20:02.268Z,100791.59
2022-09-24T02:22:30.789Z,100805.81
2022-09-24T02:24:59.442Z,100792.16
2022-09-24T02:27:28.582Z,100788.59
2022-09-24T02:29:56.789Z,100785.03
2022-09-24T02:32:27.081Z,100787.41
2022-09-24T02:34:56.165Z,100779.72
2022-09-24T02:37:24.986Z,100790.50
2022-09-24T02:39:52.878Z,100779.56
2022-09-24T02:42:21.303Z,100779.84
2022-09-24T02:44:49.255Z,100774.59
2022-09-24T02:47:18.446Z,100767.25
2022-09-24T02:49:47.775Z,100764.53
2022-09-24T02:52:15.675Z,100761.78
2022-09-24T02:54:43.570Z,100767.25
2022-09-24T02:57:11.770Z,100766.19
2022-09-24T02:59:40.208Z,100764.53
2022-09-24T03:02:08.163Z,100767.25
2022-09-24T03:04:36.056Z,100763.69
2022-09-24T03:07:05.637Z,100758.22
2022-09-24T03:09:33.605Z,100742.91
2022-09-24T03:12:01.736Z,100745.66
2022-09-24T03:14:29.624Z,100746.72
2022-09-24T03:16:57.795Z,100746.72
2022-09-24T03:19:25.753Z,100738.53
2022-09-24T03:21:53.734Z,100745.06
2022-09-24T03:24:23.158Z,100742.09
2022-09-24T03:26:51.087Z,100736.63
2022-09-24T03:29:39.203Z,100739.13
2022-09-24T03:32:06.127Z,100745.66
2022-09-24T03:34:34.011Z,100731.16
2022-09-24T03:37:02.238Z,100729.50
2022-09-24T03:39:31.550Z,100726.53
2022-09-24T03:41:59.378Z,100733.91
2022-09-24T03:44:27.271Z,100723.81
2022-09-24T03:46:55.839Z,100721.09
2022-09-24T03:49:24.443Z,100715.63
2022-09-24T03:51:52.401Z,100709.34
2022-09-24T03:54:20.294Z,100710.16
2022-09-24T03:56:49.816Z,100719.19
2022-09-24T03:59:17.833Z,100712.91
2022-09-24T04:01:45.788Z,100725.72
2022-09-24T04:04:15.549Z,100732.00
2022-09-24T04:06:44.770Z,100722.97
2022-09-24T04:09:12.676Z,100727.38
2022-09-24T04:11:40.546Z,100717.53
2022-09-24T04:14:10.094Z,100717.53
2022-09-24T04:16:38.067Z,100724.88
2022-09-24T04:19:08.122Z,100713.97
2022-09-24T04:21:36.123Z,100708.75
2022-09-24T04:24:04.071Z,100713.13
2022-09-24T04:26:32.312Z,100718.59
2022-09-24T04:29:00.251Z,100714.78
2022-09-24T04:31:30.271Z,100707.09
2022-09-24T04:33:58.257Z,100711.22
2022-09-24T04:36:26.193Z,100713.13
2022-09-24T04:38:54.339Z,100713.97
2022-09-24T04:41:22.238Z,100708.50
2022-09-24T04:43:51.654Z,100709.34
2022-09-24T04:46:20.036Z,100715.63
2022-09-24T04:48:49.996Z,100710.16
2022-09-24T04:51:19.436Z,100712.91
2022-09-24T04:53:50.594Z,100713.72
2022-09-24T04:56:18.497Z,100709.34
2022-09-24T04:58:50.734Z,100699.97
2022-09-24T05:01:18.942Z,100715.63
2022-09-24T05:03:46.815Z,100713.97
2022-09-24T05:06:16.119Z,100719.41
2022-09-24T05:08:44.270Z,100717.53
2022-09-24T05:11:13.055Z,100721.09
2022-09-24T05:13:40.987Z,100712.06
2022-09-24T05:16:09.392Z,100716.69
2022-09-24T05:18:37.561Z,100713.97
2022-09-24T05:21:05.696Z,100722.97
2022-09-24T05:23:35.015Z,100717.53
2022-09-24T05:26:20.316Z,100716.47
2022-09-24T05:28:48.191Z,100712.06
2022-09-24T05:31:17.440Z,100710.41
2022-09-24T05:33:46.259Z,100702.22
2022-09-24T05:36:14.128Z,100704.94
2022-09-24T05:38:43.710Z,100700.56
2022-09-24T05:41:11.849Z,100708.16
2022-09-24T05:43:40.633Z,100715.06
2022-09-24T05:46:08.616Z,100716.94
2022-09-24T05:48:36.872Z,100720.50
2022-09-24T05:51:05.330Z,100720.50
2022-09-24T05:53:33.931Z,100724.03
2022-09-24T05:56:03.400Z,100725.97
2022-09-24T05:58:31.680Z,100729.50
2022-09-24T06:00:59.999Z,100728.69
2022-09-24T06:03:29.622Z,100734.97
2022-09-24T06:05:59.678Z,100735.78
2022-09-24T06:08:27.963Z,100726.19
2022-09-24T06:10:59.697Z,100738.53
2022-09-24T06:13:29.143Z,100736.28
2022-09-24T06:16:01.724Z,100735.22
2022-09-24T06:18:29.984Z,100737.47
2022-09-24T06:21:01.840Z,100740.41
2022-09-24T06:23:31.045Z,100741.84
2022-09-24T06:25:59.529Z,100719.66
2022-09-24T06:28:29.466Z,100745.66
2022-09-24T06:31:15.063Z,100736.50
2022-09-24T06:34:09.293Z,100735.78
2022-09-24T06:36:42.588Z,100738.53
2022-09-24T06:39:10.930Z,100739.00
2022-09-24T06:41:57.029Z,100742.34
2022-09-24T06:44:52.365Z,100749.69
2022-09-24T06:47:24.713Z,100745.06
2022-09-24T06:50:06.696Z,100751.34
2022-09-24T06:52:40.279Z,100753.72
2022-09-24T06:55:10.703Z,100755.16
2022-09-24T06:57:40.434Z,100763.09
2022-09-24T07:00:13.386Z,100746.59
2022-09-24T07:02:41.751Z,100756.78
2022-09-24T07:05:10.828Z,100762.25
2022-09-24T07:07:39.423Z,100766.66
2022-09-24T07:10:08.392Z,100760.34
2022-09-24T07:12:36.830Z,100761.19
2022-09-24T07:15:05.437Z,100762.03
2022-09-24T07:17:35.302Z,100757.63
2022-09-24T07:20:03.655Z,100765.81
2022-09-24T07:22:31.807Z,100769.63
2022-09-24T07:24:59.994Z,100775.09
2022-09-24T07:27:28.195Z,100775.09
2022-09-24T07:29:56.783Z,100773.16
2022-09-24T07:32:29.764Z,100778.63
2022-09-24T07:34:59.716Z,100774.25
2022-09-24T07:37:28.256Z,100779.72
2022-09-24T07:39:56.487Z,100770.69
2022-09-24T07:42:25.649Z,100774.00
2022-09-24T07:44:53.758Z,100784.06
2022-09-24T07:47:22.221Z,100780.53
2022-09-24T07:49:50.397Z,100782.66
2022-09-24T07:52:20.005Z,100785.16
2022-09-24T07:54:48.147Z,100779.94
2022-09-24T07:57:17.306Z,100779.94
2022-09-24T07:59:45.594Z,100787.91
2022-09-24T08:02:17.492Z,100783.28
2022-09-24T08:04:45.670Z,100785.16
2022-09-24T08:07:14.123Z,100782.66
2022-09-24T08:09:43.767Z,100787.06
2022-09-24T08:12:12.939Z,100782.44
2022-09-24T08:14:41.876Z,100784.91
2022-09-24T08:17:10.328Z,100791.47
2022-09-24T08:19:40.167Z,100787.91
2022-09-24T08:22:08.836Z,100781.34
2022-09-24T08:24:37.017Z,100788.47
2022-09-24T08:27:06.613Z,100786.56
2022-09-24T08:29:34.864Z,100786.56
2022-09-24T08:32:03.337Z,100784.69
2022-09-24T08:34:31.528Z,100785.75
2022-09-24T08:36:59.653Z,100786.56
2022-09-24T08:39:28.337Z,100784.69
2022-09-24T08:41:57.334Z,100791.19
2022-09-24T08:44:47.660Z,100782.78
2022-09-24T08:47:26.334Z,100789.31
2022-09-24T08:50:00.071Z,100786.81
2022-09-24T08:52:32.899Z,100790.38
2022-09-24T08:55:02.480Z,100793.09
2022-09-24T08:57:30.911Z,100793.94
2022-09-24T09:00:00.471Z,100789.19
2022-09-24T09:02:37.279Z,100782.31
2022-09-24T09:05:08.999Z,100793.34
2022-09-24T09:07:41.997Z,100789.53
2022-09-24T09:10:11.952Z,100791.19
2022-09-24T09:12:41.661Z,100795.81
2022-09-24T09:15:14.153Z,100800.44
2022-09-24T09:17:45.786Z,100752.88
2022-09-24T09:20:17.536Z,100801.28
2022-09-24T09:22:48.518Z,100776.25
2022-09-24T09:25:20.984Z,100793.09
2022-09-24T09:27:54.349Z,100800.22
2022-09-24T09:30:24.061Z,100796.44
2022-09-24T09:33:09.426Z,100794.75
2022-09-24T09:35:39.767Z,100794.75
2022-09-24T09:38:12.512Z,100795.59
2022-09-24T09:40:42.987Z,100791.19
2022-09-24T09:43:12.134Z,100789.31
2022-09-24T09:45:44.876Z,100790.97
2022-09-24T09:48:16.590Z,100794.75
2022-09-24T09:50:46.350Z,100798.09
2022-09-24T09:53:21.842Z,100797.50
2022-09-24T09:55:53.664Z,100796.66
2022-09-24T09:58:24.007Z,100797.72
2022-09-24T10:00:54.032Z,100784.56
2022-09-24T10:03:26.258Z,100786.56
2022-09-24T10:05:56.826Z,100790.16
2022-09-24T10:08:25.106Z,100788.47
2022-09-24T10:10:56.591Z,100789.31
2022-09-24T10:13:25.151Z,100793.94
2022-09-24T10:15:55.668Z,100795.59
2022-09-24T10:18:29.734Z,100792.03
2022-09-24T10:20:58.012Z,100797.28
2022-09-24T10:23:28.803Z,100792.88
2022-09-24T10:25:59.915Z,100789.53
2022-09-24T10:28:45.601Z,100794.75
2022-09-24T10:31:16.298Z,100797.50
2022-09-24T10:33:45.252Z,100793.09
2022-09-24T10:36:16.129Z,100802.13
2022-09-24T10:38:44.936Z,100799.38
2022-09-24T10:41:27.342Z,100804.63
2022-09-24T10:43:55.988Z,100802.72
2022-09-24T10:46:55.299Z,100799.16
2022-09-24T10:49:32.067Z,100796.44
2022-09-24T10:52:03.707Z,100790.75
2022-09-24T10:54:42.247Z,100797.28
2022-09-24T10:57:13.926Z,100800.84
2022-09-24T10:59:47.723Z,100797.03
2022-09-24T11:02:32.357Z,100796.22
2022-09-24T11:05:01.499Z,100797.28
2022-09-24T11:08:01.077Z,100787.19
2022-09-24T11:11:00.156Z,100784.47
2022-09-24T11:13:32.473Z,100789.91
2022-09-24T11:16:18.780Z,100785.75
2022-09-24T11:18:54.096Z,100785.53
2022-09-24T11:21:37.690Z,100784.47
2022-09-24T11:24:15.841Z,100786.34
2022-09-24T11:26:50.176Z,100779.84
2022-09-24T11:29:31.130Z,100785.28
2022-09-24T11:32:06.989Z,100777.34
2022-09-24T11:34:50.795Z,100785.28
2022-09-24T11:37:26.751Z,100779.84
2022-09-24T11:40:03.525Z,100785.28
2022-09-24T11:42:35.199Z,100783.63
2022-09-24T11:45:24.666Z,100779.00
2022-09-24T11:48:05.723Z,100779.00
2022-09-24T11:50:46.536Z,100777.34
2022-09-24T11:53:16.635Z,100780.91
2022-09-24T11:55:47.378Z,100770.81
2022-09-24T11:58:17.677Z,100770.81
2022-09-24T12:00:48.556Z,100774.38
2022-09-24T12:03:23.599Z,100764.53
2022-09-24T12:05:57.729Z,100749.31
2022-09-24T12:08:27.845Z,100766.19
2022-09-24T12:10:58.322Z,100760.47
2022-09-24T12:13:28.561Z,100755.00
2022-09-24T12:15:57.736Z,100755.00
2022-09-24T12:18:27.526Z,100753.13
2022-09-24T12:21:01.574Z,100752.06
2022-09-24T12:23:30.992Z,100746.38
2022-09-24T12:25:59.573Z,100754.56
2022-09-24T12:28:46.161Z,100732.59
2022-09-24T12:31:34.076Z,100748.03
2022-09-24T12:34:05.105Z,100746.94
2022-09-24T12:36:42.494Z,100703.75
2022-09-24T12:39:12.104Z,100739.59
2022-09-24T12:41:40.231Z,100747.78
2022-09-24T12:44:09.750Z,100744.22
2022-09-24T12:46:41.072Z,100728.44
2022-09-24T12:49:18.453Z,100744.00
2022-09-24T12:51:48.069Z,100742.91
2022-09-24T12:54:27.897Z,100739.34
2022-09-24T12:57:07.597Z,100737.47
2022-09-24T12:59:35.734Z,100741.03
2022-09-24T13:02:19.953Z,100736.41
2022-09-24T13:05:23.542Z,100741.88
2022-09-24T13:08:00.865Z,100732.84
2022-09-24T13:10:30.402Z,100737.22
2022-09-24T13:13:00.090Z,100730.13
2022-09-24T13:15:33.513Z,100741.59
2022-09-24T13:18:06.969Z,100736.13
2022-09-24T13:20:35.242Z,100738.88
2022-09-24T13:23:16.567Z,100738.06
2022-09-24T13:25:55.915Z,100732.34
2022-09-24T13:28:25.345Z,100735.34
2022-09-24T13:30:56.603Z,100732.34
2022-09-24T13:33:28.003Z,100732.59
2022-09-24T13:36:07.741Z,100733.41
2022-09-24T13:38:38.421Z,100738.06
2022-09-24T13:41:14.041Z,100737.81
2022-09-24T13:43:45.348Z,100693.00
2022-09-24T13:46:15.781Z,100731.53
2022-09-24T13:48:46.485Z,100740.78
2022-09-24T13:51:15.083Z,100733.91
2022-09-24T13:53:45.818Z,100735.34
2022-09-24T13:56:14.662Z,100732.59
2022-09-24T13:58:43.945Z,100741.59
2022-09-24T14:01:16.747Z,100734.25
2022-09-24T14:03:45.196Z,100732.59
2022-09-24T14:06:13.885Z,100732.34
2022-09-24T14:08:42.669Z,100722.38
2022-09-24T14:11:17.044Z,100727.16
2022-09-24T14:13:46.327Z,100735.06
2022-09-24T14:16:16.585Z,100732.34
2022-09-24T14:18:44.996Z,100735.91
2022-09-24T14:21:15.444Z,100730.44
2022-09-24T14:23:46.303Z,100733.19
2022-09-24T14:26:20.745Z,100727.94
2022-09-24T14:28:48.949Z,100737.59
2022-09-24T14:31:17.173Z,100727.72
2022-09-24T14:33:45.426Z,100733.19
2022-09-24T14:36:14.207Z,100739.72
2022-09-24T14:38:53.919Z,100737.81
2022-09-24T14:41:24.190Z,100733.41
2022-09-24T14:43:54.601Z,100730.69
2022-09-24T14:46:23.843Z,100727.94
2022-09-24T14:48:52.403Z,100717.03
2022-09-24T14:51:27.959Z,100727.94
2022-09-24T14:53:59.534Z,100718.97
2022-09-24T14:56:30.659Z,100724.41
2022-09-24T14:58:58.816Z,100721.69
2022-09-24T15:01:31.096Z,100727.16
2022-09-24T15:03:59.940Z,100720.84
2022-09-24T15:06:28.904Z,100706.50
2022-09-24T15:09:02.050Z,100720.84
2022-09-24T15:11:32.862Z,100724.66
2022-09-24T15:14:02.276Z,100725.47
2022-09-24T15:16:32.074Z,100721.91
2022-09-24T15:19:02.961Z,100721.09
2022-09-24T15:21:31.134Z,100729.28
2022-09-24T15:23:59.255Z,100726.53
2022-09-24T15:26:29.898Z,100734.72
2022-09-24T15:28:59.844Z,100732.84
2022-09-24T15:31:28.041Z,100721.91
2022-09-24T15:33:56.563Z,100723.59
2022-09-24T15:36:25.924Z,100724.41
2022-09-24T15:38:54.436Z,100722.75
2022-09-24T15:41:22.586Z,100724.41
2022-09-24T15:43:50.843Z,100717.28
2022-09-24T15:46:20.559Z,100714.56
2022-09-24T15:48:48.976Z,100722.75
2022-09-24T15:51:17.328Z,100717.28
2022-09-24T15:53:45.500Z,100724.66
2022-09-24T15:56:13.677Z,100725.72
2022-09-24T15:58:42.065Z,100725.72
2022-09-24T16:01:12.090Z,100720.47
2022-09-24T16:03:41.749Z,100720.25
2022-09-24T16:06:10.996Z,100723.81
2022-09-24T16:08:39.417Z,100724.88
2022-09-24T16:11:09.256Z,100732.22
2022-09-24T16:13:37.528Z,100726.53
2022-09-24T16:16:07.723Z,100734.72
2022-09-24T16:18:38.155Z,100728.22
2022-09-24T16:21:08.907Z,100733.69
2022-09-24T16:23:37.091Z,100739.97
2022-09-24T16:26:05.263Z,100730.13
2022-09-24T16:28:33.628Z,100739.13
2022-09-24T16:31:06.503Z,100734.72
2022-09-24T16:33:38.722Z,100729.38
2022-09-24T16:36:08.853Z,100738.53
2022-09-24T16:38:37.368Z,100744.81
2022-09-24T16:41:05.858Z,100744.81
2022-09-24T16:43:34.117Z,100752.19
2022-09-24T16:46:03.811Z,100753.84
2022-09-24T16:48:32.447Z,100753.00
2022-09-24T16:51:04.695Z,100746.72
2022-09-24T16:53:34.930Z,100755.75
2022-09-24T16:56:11.156Z,100732.84
2022-09-24T16:58:39.607Z,100750.28
2022-09-24T17:01:07.925Z,100749.44
2022-09-24T17:03:36.095Z,100753.22
2022-09-24T17:06:04.395Z,100754.31
2022-09-24T17:08:48.381Z,100742.31
2022-09-24T17:11:16.564Z,100749.66
2022-09-24T17:13:44.829Z,100750.78
2022-09-24T17:16:13.037Z,100757.84
2022-09-24T17:18:41.371Z,100753.22
2022-09-24T17:21:11.249Z,100761.69
2022-09-24T17:23:40.823Z,100753.13
2022-09-24T17:26:09.844Z,100760.84
2022-09-24T17:28:38.271Z,100769.03
2022-09-24T17:31:07.413Z,100772.81
2022-09-24T17:33:43.474Z,100768.19
2022-09-24T17:36:12.844Z,100764.63
2022-09-24T17:38:42.757Z,100772.81
2022-09-24T17:41:12.044Z,100773.66
2022-09-24T17:43:40.493Z,100768.19
2022-09-24T17:46:13.742Z,100772.00
2022-09-24T17:48:44.625Z,100775.56
2022-09-24T17:51:13.722Z,100774.50
2022-09-24T17:53:43.374Z,100777.22
2022-09-24T17:56:12.038Z,100774.50
2022-09-24T17:58:41.066Z,100777.22
2022-09-24T18:01:09.762Z,100779.97
2022-09-24T18:03:37.850Z,100780.41
2022-09-24T18:06:06.658Z,100786.25
2022-09-24T18:08:37.204Z,100786.25
2022-09-24T18:11:07.943Z,100791.72
2022-09-24T18:13:35.883Z,100794.44
2022-09-24T18:16:05.135Z,100793.59
2022-09-24T18:18:33.217Z,100795.50
2022-09-24T18:21:01.830Z,100793.59
2022-09-24T18:23:29.753Z,100800.34
2022-09-24T18:25:57.785Z,100809.16
2022-09-24T18:28:27.070Z,100802.00
2022-09-24T18:31:04.921Z,100810.44
2022-09-24T18:33:33.271Z,100806.63
2022-09-24T18:36:02.878Z,100804.75
2022-09-24T18:38:31.866Z,100805.22
2022-09-24T18:41:00.352Z,100817.56
2022-09-24T18:43:31.154Z,100811.25
2022-09-24T18:46:03.839Z,100814.00
2022-09-24T18:48:31.774Z,100807.69
2022-09-24T18:50:59.723Z,100812.31
2022-09-24T18:53:27.797Z,100813.16
2022-09-24T18:55:55.707Z,100815.53
2022-09-24T18:58:23.851Z,100818.63
2022-09-24T19:00:54.762Z,100827.28
2022-09-24T19:03:22.793Z,100830.63
2022-09-24T19:05:51.593Z,100829.78
2022-09-24T19:08:20.213Z,100829.78
2022-09-24T19:10:48.150Z,100835.00
2022-09-24T19:13:16.062Z,100820.03
2022-09-24T19:15:44.162Z,100832.25
2022-09-24T19:18:14.673Z,100838.56
2022-09-24T19:20:45.456Z,100837.72
2022-09-24T19:23:13.390Z,100842.13
2022-09-24T19:25:42.198Z,100844.28
2022-09-24T19:28:11.732Z,100840.44
2022-09-24T19:30:40.868Z,100839.63
2022-09-24T19:33:09.745Z,100836.66
2022-09-24T19:35:39.094Z,100840.44
2022-09-24T19:38:07.269Z,100838.81
2022-09-24T19:40:35.236Z,100832.53
2022-09-24T19:43:05.200Z,100836.09
2022-09-24T19:45:33.103Z,100830.03
2022-09-24T19:48:01.358Z,100838.81
2022-09-24T19:50:34.270Z,100837.97
2022-09-24T19:53:05.263Z,100833.34
2022-09-24T19:55:35.795Z,100836.88
2022-09-24T19:58:04.252Z,100840.44
2022-09-24T20:00:32.125Z,100843.44
2022-09-24T20:03:00.904Z,100844.28
2022-09-24T20:05:28.900Z,100844.28
2022-09-24T20:07:57.084Z,100843.44
2022-09-24T20:10:26.431Z,100849.13
2022-09-24T20:12:54.611Z,100855.41
2022-09-24T20:15:22.933Z,100849.97
2022-09-24T20:17:51.196Z,100845.34
2022-09-24T20:20:19.122Z,100845.34
2022-09-24T20:22:46.973Z,100851.63
2022-09-24T20:25:14.992Z,100852.47
2022-09-24T20:27:52.070Z,100843.44
2022-09-24T20:30:21.696Z,100850.78
2022-09-24T20:32:49.729Z,100856.25
2022-09-24T20:35:17.925Z,100851.63
2022-09-24T20:37:46.138Z,100853.53
2022-09-24T20:40:14.102Z,100857.31
2022-09-24T20:42:42.095Z,100843.66
2022-09-24T20:45:11.776Z,100857.09
2022-09-24T20:47:39.677Z,100854.59
2022-09-24T20:50:08.647Z,100857.31
2022-09-24T20:52:36.566Z,100856.47
2022-09-24T20:55:04.519Z,100860.03
2022-09-24T20:57:33.165Z,100855.63
2022-09-24T21:00:01.089Z,100853.75
2022-09-24T21:02:30.445Z,100857.53
2022-09-24T21:04:58.631Z,100843.31
2022-09-24T21:07:26.604Z,100853.13
2022-09-24T21:09:54.671Z,100853.75
2022-09-24T21:12:23.005Z,100852.91
2022-09-24T21:14:52.826Z,100852.91
2022-09-24T21:17:21.022Z,100864.66
2022-09-24T21:19:50.309Z,100861.09
2022-09-24T21:22:18.420Z,100866.56
2022-09-24T21:24:46.482Z,100858.59
2022-09-24T21:27:16.183Z,100856.69
2022-09-24T21:29:44.648Z,100864.06
2022-09-24T21:32:12.522Z,100859.06
2022-09-24T21:34:41.599Z,100858.25
2022-09-24T21:37:13.303Z,100855.50
2022-09-24T21:39:41.390Z,100862.41
2022-09-24T21:42:09.277Z,100869.50
2022-09-24T21:44:37.130Z,100867.63
2022-09-24T21:47:05.675Z,100877.47
2022-09-24T21:49:36.440Z,100874.97
2022-09-24T21:52:06.048Z,100877.47
2022-09-24T21:54:36.135Z,100869.28
2022-09-24T21:57:04.325Z,100874.97
2022-09-24T21:59:49.743Z,100868.69
2022-09-24T22:02:17.681Z,100873.34
2022-09-24T22:04:45.655Z,100868.94
2022-09-24T22:07:15.127Z,100874.97
2022-09-24T22:09:44.386Z,100874.13
2022-09-24T22:12:12.297Z,100876.88
2022-09-24T22:14:40.214Z,100865.16
2022-09-24T22:17:08.673Z,100872.50
2022-09-24T22:19:36.769Z,100864.31
2022-09-24T22:22:04.695Z,100864.31
2022-09-24T22:24:32.548Z,100858.84
2022-09-24T22:27:01.901Z,100860.97
2022-09-24T22:29:30.539Z,100861.81
2022-09-24T22:31:58.424Z,100870.00
2022-09-24T22:34:44.057Z,100870.00
2022-09-24T22:37:12.019Z,100857.41
2022-09-24T22:39:39.897Z,100865.59
2022-09-24T22:42:09.199Z,100868.53
2022-09-24T22:44:37.085Z,100866.66
2022-09-24T22:47:05.348Z,100858.47
2022-09-24T22:49:33.397Z,100869.16
2022-09-24T22:52:01.595Z,100871.06
2022-09-24T22:54:30.438Z,100872.94
2022-09-24T22:56:58.630Z,100867.47
2022-09-24T22:59:28.008Z,100862.88
2022-09-24T23:01:55.954Z,100853.84
2022-09-24T23:04:24.151Z,100862.03
2022-09-24T23:06:52.324Z,100867.25
2022-09-24T23:09:20.666Z,100862.63
2022-09-24T23:11:48.541Z,100860.34
2022-09-24T23:14:16.985Z,100864.53
2022-09-24T23:16:47.537Z,100838.28
2022-09-24T23:19:16.859Z,100855.50
2022-09-24T23:21:44.968Z,100861.81
2022-09-24T23:24:14.975Z,100850.88
2022-09-24T23:26:42.890Z,100854.69
2022-09-24T23:29:11.023Z,100856.56
2022-09-24T23:31:38.937Z,100858.47
2022-09-24T23:34:08.678Z,100852.19
2022-09-24T23:36:36.717Z,100857.41
2022-09-24T23:39:04.968Z,100858.25
2022-09-24T23:41:32.901Z,100855.50
2022-09-24T23:44:00.896Z,100861.19
2022-09-24T23:46:28.870Z,100862.88
2022-09-24T23:48:57.134Z,100859.28
2022-09-24T23:51:26.511Z,100861.19
2022-09-24T23:53:54.399Z,100872.94
2022-09-24T23:56:23.667Z,100866.91
2022-09-24T23:58:51.529Z,100860.63
